Time;durP1;ratioP1;P1;durP2;ratioP2;P2;SDS_P1;SDS_P2;PMS_P1;PMS_P2;Temp;Humidity;BMP_temperature;BMP_pressure;BME280_temperature;BME280_humidity;BME280_pressure;Samples;Min_cycle;Max_cycle;Signal;HPM_P1;HPM_P2
2022/03/01 00:02:09;;;;;;;16.93;9.40;;;;;;;;;;5096061;28;20177;-63
2022/03/01 00:04:35;;;;;;;20.10;9.93;;;;;;;;;;5096242;28;20193;-64
2022/03/01 00:07:02;;;;;;;10.43;8.10;;;;;;;;;;5078161;28;20181;-64
2022/03/01 00:09:28;;;;;;;13.80;8.10;;;;;;;;;;5096140;28;20169;-64
2022/03/01 00:11:54;;;;;;;12.90;8.90;;;;;;;;;;5077914;28;20192;-65
2022/03/01 00:14:20;;;;;;;11.53;8.13;;;;;;;;;;5095495;28;20216;-64
2022/03/01 00:16:46;;;;;;;14.93;9.33;;;;;;;;;;5096323;28;20271;-64
2022/03/01 00:19:12;;;;;;;16.53;9.53;;;;;;;;;;5095855;28;20652;-63
2022/03/01 00:21:38;;;;;;;14.57;9.10;;;;;;;;;;5095900;28;20197;-63
2022/03/01 00:24:04;;;;;;;17.57;10.73;;;;;;;;;;5077487;28;20208;-64
2022/03/01 00:26:30;;;;;;;17.93;11.40;;;;;;;;;;5095804;28;20201;-64
2022/03/01 00:28:56;;;;;;;32.67;20.83;;;;;;;;;;5078052;28;20271;-62
2022/03/01 00:31:22;;;;;;;32.93;20.53;;;;;;;;;;5096124;28;20177;-63
2022/03/01 00:33:48;;;;;;;29.67;17.70;;;;;;;;;;5096056;28;20197;-66
2022/03/01 00:36:14;;;;;;;24.70;15.37;;;;;;;;;;5077836;28;20235;-63
2022/03/01 00:38:40;;;;;;;26.20;16.07;;;;;;;;;;5096215;28;20180;-63
2022/03/01 00:41:06;;;;;;;23.60;15.40;;;;;;;;;;5095834;28;20212;-63
2022/03/01 00:43:32;;;;;;;24.37;15.20;;;;;;;;;;5077735;28;20197;-63
2022/03/01 00:45:58;;;;;;;20.27;12.73;;;;;;;;;;5077991;28;20866;-62
2022/03/01 00:48:25;;;;;;;16.40;11.77;;;;;;;;;;5096116;28;20636;-64
2022/03/01 00:50:51;;;;;;;18.73;11.07;;;;;;;;;;5116767;22;20182;-66
2022/03/01 00:53:17;;;;;;;16.43;11.00;;;;;;;;;;5073768;28;20583;-66
2022/03/01 00:55:43;;;;;;;13.63;9.33;;;;;;;;;;5056430;28;20330;-66
2022/03/01 00:58:08;;;;;;;11.70;8.90;;;;;;;;;;5074320;28;20657;-66
2022/03/01 01:00:36;;;;;;;15.43;9.47;;;;;;;;;;5056581;28;20216;-66
2022/03/01 01:03:02;;;;;;;13.50;9.80;;;;;;;;;;5058880;28;20638;-66
2022/03/01 01:05:28;;;;;;;12.07;8.97;;;;;;;;;;5058638;28;20242;-66
2022/03/01 01:07:54;;;;;;;17.33;10.23;;;;;;;;;;5062935;28;20599;-66
2022/03/01 01:10:21;;;;;;;14.77;10.40;;;;;;;;;;5059660;28;20182;-67
2022/03/01 01:12:47;;;;;;;16.27;10.90;;;;;;;;;;5053629;28;20837;-66
2022/03/01 01:15:14;;;;;;;17.13;12.33;;;;;;;;;;5053235;28;20425;-66
2022/03/01 01:17:40;;;;;;;16.27;11.40;;;;;;;;;;5054114;28;20416;-66
2022/03/01 01:20:07;;;;;;;19.40;12.30;;;;;;;;;;5054555;28;20870;-67
2022/03/01 01:22:39;;;;;;;17.13;11.53;;;;;;;;;;5053864;28;20551;-66
2022/03/01 01:25:06;;;;;;;15.73;10.93;;;;;;;;;;5053867;28;20408;-67
2022/03/01 01:27:33;;;;;;;17.17;11.47;;;;;;;;;;5052606;28;20445;-66
2022/03/01 01:29:59;;;;;;;20.23;12.93;;;;;;;;;;5054083;28;20417;-64
2022/03/01 01:32:25;;;;;;;17.47;12.13;;;;;;;;;;5052446;28;20444;-64
2022/03/01 01:34:52;;;;;;;15.87;11.70;;;;;;;;;;5053670;28;20264;-64
2022/03/01 01:37:18;;;;;;;14.60;11.00;;;;;;;;;;5054506;28;20415;-64
2022/03/01 01:39:44;;;;;;;16.60;11.80;;;;;;;;;;5052575;28;20423;-66
2022/03/01 01:42:10;;;;;;;18.50;11.27;;;;;;;;;;5052664;28;20436;-66
2022/03/01 01:44:36;;;;;;;17.57;11.60;;;;;;;;;;5053575;28;20413;-67
2022/03/01 01:47:02;;;;;;;15.27;10.97;;;;;;;;;;5053780;28;20449;-66
2022/03/01 01:49:28;;;;;;;14.30;10.27;;;;;;;;;;5053776;28;20412;-66
2022/03/01 01:51:55;;;;;;;14.70;10.47;;;;;;;;;;5052442;28;20510;-67
2022/03/01 01:54:20;;;;;;;20.30;13.27;;;;;;;;;;5053941;28;20432;-66
2022/03/01 01:56:46;;;;;;;18.60;11.80;;;;;;;;;;5053871;28;20405;-66
2022/03/01 01:59:13;;;;;;;20.83;12.73;;;;;;;;;;5053572;28;20659;-66
2022/03/01 02:01:39;;;;;;;18.67;11.83;;;;;;;;;;5053303;28;20625;-66
2022/03/01 02:04:04;;;;;;;20.53;11.20;;;;;;;;;;5052930;28;20413;-67
2022/03/01 02:06:31;;;;;;;19.23;10.80;;;;;;;;;;5072913;28;20412;-67
2022/03/01 02:08:57;;;;;;;14.77;10.30;;;;;;;;;;5073737;28;20177;-66
2022/03/01 02:11:23;;;;;;;17.03;11.50;;;;;;;;;;5074276;28;20429;-67
2022/03/01 02:13:48;;;;;;;17.47;10.97;;;;;;;;;;5063592;28;20182;-67
2022/03/01 02:16:14;;;;;;;18.10;10.67;;;;;;;;;;5061506;28;20240;-66
2022/03/01 02:18:41;;;;;;;14.43;10.00;;;;;;;;;;5059173;28;20254;-66
2022/03/01 02:21:07;;;;;;;12.20;9.20;;;;;;;;;;5058883;28;20222;-66
2022/03/01 02:23:33;;;;;;;14.47;9.30;;;;;;;;;;5059962;28;20401;-66
2022/03/01 02:25:58;;;;;;;12.87;8.50;;;;;;;;;;5069541;28;20429;-68
2022/03/01 02:28:24;;;;;;;14.53;9.10;;;;;;;;;;5076208;28;20174;-67
2022/03/01 02:30:50;;;;;;;12.00;8.57;;;;;;;;;;5076083;28;20182;-67
2022/03/01 02:33:16;;;;;;;12.03;8.10;;;;;;;;;;5076497;28;20654;-67
2022/03/01 02:35:42;;;;;;;12.30;8.67;;;;;;;;;;5068610;28;20189;-66
2022/03/01 02:38:08;;;;;;;13.17;9.67;;;;;;;;;;5061179;28;20192;-64
2022/03/01 02:40:34;;;;;;;14.20;9.37;;;;;;;;;;5060790;28;20205;-66
2022/03/01 02:43:00;;;;;;;12.40;8.70;;;;;;;;;;5060087;28;20194;-66
2022/03/01 02:45:26;;;;;;;12.53;8.67;;;;;;;;;;5059732;28;20595;-66
2022/03/01 02:47:52;;;;;;;11.63;8.87;;;;;;;;;;5058614;28;20552;-66
2022/03/01 02:50:18;;;;;;;15.87;8.73;;;;;;;;;;5059680;28;20228;-66
2022/03/01 02:52:45;;;;;;;12.53;9.00;;;;;;;;;;5059947;28;20210;-66
2022/03/01 02:55:11;;;;;;;11.00;8.50;;;;;;;;;;5059718;28;20409;-66
2022/03/01 02:57:37;;;;;;;13.30;8.63;;;;;;;;;;5059541;28;20440;-66
2022/03/01 03:00:06;;;;;;;10.70;7.90;;;;;;;;;;5058176;28;20451;-66
2022/03/01 03:02:32;;;;;;;10.97;8.03;;;;;;;;;;5059515;28;20190;-66
2022/03/01 03:04:58;;;;;;;11.80;8.13;;;;;;;;;;5058059;28;20417;-66
2022/03/01 03:07:24;;;;;;;13.77;9.53;;;;;;;;;;5058181;28;20178;-66
2022/03/01 03:09:50;;;;;;;12.03;9.03;;;;;;;;;;5059637;28;20166;-66
2022/03/01 03:12:18;;;;;;;10.77;8.23;;;;;;;;;;5059677;28;20806;-66
2022/03/01 03:14:45;;;;;;;12.90;8.80;;;;;;;;;;5059992;28;20180;-66
2022/03/01 03:17:11;;;;;;;11.43;8.63;;;;;;;;;;5055075;28;20496;-66
2022/03/01 03:19:37;;;;;;;14.43;9.23;;;;;;;;;;5056185;28;20856;-66
2022/03/01 03:22:05;;;;;;;11.97;9.13;;;;;;;;;;5056251;28;20562;-66
2022/03/01 03:24:31;;;;;;;12.80;9.20;;;;;;;;;;5054826;28;20178;-66
2022/03/01 03:26:57;;;;;;;12.63;8.33;;;;;;;;;;5054840;28;20417;-66
2022/03/01 03:29:23;;;;;;;11.53;8.83;;;;;;;;;;5056191;28;20261;-66
2022/03/01 03:31:54;;;;;;;11.03;8.20;;;;;;;;;;5056300;28;20198;-66
2022/03/01 03:34:20;;;;;;;12.70;8.90;;;;;;;;;;5056067;28;20901;-66
2022/03/01 03:36:46;;;;;;;10.03;7.50;;;;;;;;;;5054874;28;20452;-66
2022/03/01 03:39:12;;;;;;;12.40;8.23;;;;;;;;;;5055937;28;20592;-66
2022/03/01 03:41:38;;;;;;;11.43;7.97;;;;;;;;;;5054330;28;20206;-66
2022/03/01 03:44:05;;;;;;;12.47;7.77;;;;;;;;;;5054444;28;20183;-67
2022/03/01 03:46:31;;;;;;;11.13;8.37;;;;;;;;;;5056201;28;20406;-66
2022/03/01 03:48:57;;;;;;;10.70;7.97;;;;;;;;;;5055582;28;20409;-67
2022/03/01 03:51:23;;;;;;;13.47;8.30;;;;;;;;;;5055477;28;20214;-66
2022/03/01 03:53:49;;;;;;;11.23;7.57;;;;;;;;;;5054400;28;20332;-66
2022/03/01 03:56:15;;;;;;;10.50;7.83;;;;;;;;;;5054394;28;20425;-66
2022/03/01 03:58:41;;;;;;;12.70;7.20;;;;;;;;;;5055689;28;20492;-67
2022/03/01 04:01:08;;;;;;;11.33;7.67;;;;;;;;;;5054238;28;20472;-66
2022/03/01 04:03:34;;;;;;;10.60;7.67;;;;;;;;;;5055877;28;20463;-66
2022/03/01 04:06:00;;;;;;;11.77;7.53;;;;;;;;;;5054172;28;20824;-66
2022/03/01 04:08:27;;;;;;;10.27;7.27;;;;;;;;;;5054052;28;20174;-66
2022/03/01 04:10:53;;;;;;;9.33;7.67;;;;;;;;;;5054213;28;20621;-66
2022/03/01 04:13:19;;;;;;;10.70;7.50;;;;;;;;;;5055725;28;20478;-66
2022/03/01 04:15:45;;;;;;;10.87;7.13;;;;;;;;;;5055809;28;20643;-66
2022/03/01 04:18:11;;;;;;;10.33;7.70;;;;;;;;;;5053954;28;20658;-66
2022/03/01 04:20:37;;;;;;;8.83;7.40;;;;;;;;;;5055246;28;20260;-67
2022/03/01 04:23:03;;;;;;;13.37;7.97;;;;;;;;;;5053791;28;20265;-66
2022/03/01 04:25:29;;;;;;;9.20;7.27;;;;;;;;;;5055275;28;20186;-66
2022/03/01 04:27:55;;;;;;;10.37;6.87;;;;;;;;;;5053789;28;20417;-66
2022/03/01 04:30:22;;;;;;;12.63;7.30;;;;;;;;;;5055135;28;20262;-66
2022/03/01 04:32:48;;;;;;;8.63;6.73;;;;;;;;;;5055072;28;20424;-66
2022/03/01 04:35:14;;;;;;;10.50;7.40;;;;;;;;;;5055210;28;20412;-66
2022/03/01 04:37:41;;;;;;;9.20;7.30;;;;;;;;;;5053576;28;20929;-66
2022/03/01 04:40:08;;;;;;;10.93;7.20;;;;;;;;;;5053385;28;20417;-66
2022/03/01 04:42:35;;;;;;;11.90;7.20;;;;;;;;;;5055083;28;20202;-66
2022/03/01 04:45:02;;;;;;;10.73;6.70;;;;;;;;;;5054716;28;20413;-67
2022/03/01 04:47:28;;;;;;;10.97;7.17;;;;;;;;;;5053685;28;20213;-66
2022/03/01 04:49:54;;;;;;;9.80;7.30;;;;;;;;;;5053624;28;20459;-66
2022/03/01 04:52:21;;;;;;;11.03;7.10;;;;;;;;;;5054648;28;20211;-66
2022/03/01 04:54:46;;;;;;;10.47;7.43;;;;;;;;;;5053482;28;20529;-64
2022/03/01 04:57:12;;;;;;;9.90;7.67;;;;;;;;;;5053361;28;20186;-65
2022/03/01 04:59:38;;;;;;;10.53;7.13;;;;;;;;;;5054556;28;20232;-64
2022/03/01 05:02:05;;;;;;;11.33;7.13;;;;;;;;;;5054707;28;20244;-64
2022/03/01 05:04:31;;;;;;;9.20;7.07;;;;;;;;;;5054318;28;20769;-65
2022/03/01 05:06:57;;;;;;;9.23;6.90;;;;;;;;;;5054450;28;20178;-64
2022/03/01 05:09:23;;;;;;;10.37;7.00;;;;;;;;;;5054742;28;20206;-64
2022/03/01 05:11:50;;;;;;;9.50;6.90;;;;;;;;;;5053169;28;20307;-64
2022/03/01 05:14:16;;;;;;;10.23;7.07;;;;;;;;;;5055037;28;20234;-64
2022/03/01 05:16:42;;;;;;;10.07;7.63;;;;;;;;;;5053258;28;20193;-64
2022/03/01 05:19:09;;;;;;;11.03;7.60;;;;;;;;;;5054344;28;20639;-64
2022/03/01 05:21:35;;;;;;;13.43;7.07;;;;;;;;;;5054653;28;20206;-64
2022/03/01 05:24:01;;;;;;;12.60;7.33;;;;;;;;;;5054445;28;20413;-64
2022/03/01 05:26:27;;;;;;;10.30;7.37;;;;;;;;;;5053932;28;20273;-64
2022/03/01 05:28:53;;;;;;;13.23;7.60;;;;;;;;;;5054071;28;20179;-64
2022/03/01 05:31:19;;;;;;;10.27;7.53;;;;;;;;;;5052508;28;20709;-64
2022/03/01 05:33:46;;;;;;;9.87;7.13;;;;;;;;;;5054268;28;20182;-64
2022/03/01 05:36:12;;;;;;;12.33;7.80;;;;;;;;;;5053946;28;20185;-64
2022/03/01 05:38:38;;;;;;;10.27;7.23;;;;;;;;;;5052585;28;20222;-64
2022/03/01 05:41:04;;;;;;;11.47;7.13;;;;;;;;;;5051950;28;20741;-65
2022/03/01 05:43:30;;;;;;;10.87;7.67;;;;;;;;;;5052787;28;20183;-65
2022/03/01 05:45:56;;;;;;;11.37;7.23;;;;;;;;;;5052641;28;20178;-65
2022/03/01 05:48:22;;;;;;;9.40;7.17;;;;;;;;;;5052484;28;20183;-65
2022/03/01 05:50:48;;;;;;;9.73;6.87;;;;;;;;;;5052457;28;20253;-66
2022/03/01 05:53:14;;;;;;;10.17;6.87;;;;;;;;;;5054359;28;20174;-65
2022/03/01 05:55:40;;;;;;;11.23;8.23;;;;;;;;;;5052374;28;20615;-65
2022/03/01 05:58:06;;;;;;;7.73;6.90;;;;;;;;;;5053479;28;20231;-65
2022/03/01 06:00:32;;;;;;;11.00;7.57;;;;;;;;;;5052143;28;20636;-65
2022/03/01 06:02:58;;;;;;;11.77;6.97;;;;;;;;;;5053432;28;20221;-65
2022/03/01 06:05:24;;;;;;;10.67;7.03;;;;;;;;;;5052398;28;20598;-65
2022/03/01 06:07:50;;;;;;;12.57;7.30;;;;;;;;;;5053754;28;20185;-65
2022/03/01 06:10:16;;;;;;;14.17;7.77;;;;;;;;;;5053444;28;20186;-65
2022/03/01 06:12:42;;;;;;;13.90;7.80;;;;;;;;;;5052141;28;20214;-65
2022/03/01 06:15:09;;;;;;;11.40;7.77;;;;;;;;;;5053183;28;20261;-65
2022/03/01 06:17:35;;;;;;;8.73;6.63;;;;;;;;;;5053451;28;20190;-65
2022/03/01 06:20:01;;;;;;;10.47;7.40;;;;;;;;;;5052128;28;20269;-65
2022/03/01 06:22:28;;;;;;;12.17;7.77;;;;;;;;;;5052050;28;20294;-65
2022/03/01 06:24:55;;;;;;;10.30;7.60;;;;;;;;;;5053319;28;20178;-65
2022/03/01 06:27:21;;;;;;;13.47;8.43;;;;;;;;;;5053727;28;20232;-65
2022/03/01 06:29:47;;;;;;;11.27;7.93;;;;;;;;;;5053812;28;20408;-65
2022/03/01 06:32:13;;;;;;;14.53;8.60;;;;;;;;;;5057418;28;20241;-65
2022/03/01 06:34:39;;;;;;;12.47;7.73;;;;;;;;;;5061875;28;20186;-65
2022/03/01 06:37:12;;;;;;;9.87;7.70;;;;;;;;;;5060507;28;20181;-66
2022/03/01 06:39:38;;;;;;;10.57;7.37;;;;;;;;;;5062309;28;20162;-66
2022/03/01 06:42:04;;;;;;;11.83;7.67;;;;;;;;;;5054653;28;20697;-65
2022/03/01 06:44:30;;;;;;;11.77;8.37;;;;;;;;;;5053768;28;20171;-65
2022/03/01 06:46:56;;;;;;;12.20;8.73;;;;;;;;;;5052331;28;20175;-65
2022/03/01 06:49:22;;;;;;;11.77;7.90;;;;;;;;;;5053141;28;20179;-65
2022/03/01 06:51:48;;;;;;;14.67;8.60;;;;;;;;;;5053613;28;20596;-65
2022/03/01 06:54:14;;;;;;;12.63;7.27;;;;;;;;;;5056906;28;20617;-65
2022/03/01 06:56:40;;;;;;;13.53;7.97;;;;;;;;;;5055409;28;20218;-65
2022/03/01 06:59:06;;;;;;;11.23;7.50;;;;;;;;;;5055553;28;20178;-65
2022/03/01 07:01:32;;;;;;;14.87;8.37;;;;;;;;;;5056910;28;20206;-65
2022/03/01 07:03:58;;;;;;;12.70;8.70;;;;;;;;;;5056825;28;20196;-65
2022/03/01 07:06:24;;;;;;;14.97;7.50;;;;;;;;;;5055995;28;20179;-65
2022/03/01 07:08:50;;;;;;;11.23;8.13;;;;;;;;;;5056935;28;20532;-65
2022/03/01 07:11:16;;;;;;;13.43;8.30;;;;;;;;;;5056384;28;20205;-65
2022/03/01 07:13:42;;;;;;;12.87;8.60;;;;;;;;;;5055173;28;20208;-65
2022/03/01 07:16:08;;;;;;;15.40;8.80;;;;;;;;;;5055109;28;20292;-65
2022/03/01 07:18:34;;;;;;;13.23;8.13;;;;;;;;;;5055207;28;20264;-65
2022/03/01 07:21:00;;;;;;;13.97;8.07;;;;;;;;;;5056517;28;20214;-65
2022/03/01 07:23:26;;;;;;;14.50;8.00;;;;;;;;;;5056487;28;20289;-65
2022/03/01 07:25:52;;;;;;;12.27;8.60;;;;;;;;;;5056324;28;20261;-65
2022/03/01 07:28:18;;;;;;;12.87;8.07;;;;;;;;;;5056359;28;20256;-65
2022/03/01 07:30:44;;;;;;;10.93;7.90;;;;;;;;;;5054651;28;20182;-66
2022/03/01 07:33:10;;;;;;;12.47;8.00;;;;;;;;;;5055864;28;20182;-66
2022/03/01 07:35:36;;;;;;;11.90;7.83;;;;;;;;;;5055770;28;20261;-67
2022/03/01 07:38:02;;;;;;;14.00;8.83;;;;;;;;;;5055781;28;20273;-65
2022/03/01 07:40:28;;;;;;;13.77;8.27;;;;;;;;;;5054282;28;20256;-65
2022/03/01 07:42:54;;;;;;;12.13;8.27;;;;;;;;;;5055539;28;20699;-65
2022/03/01 07:45:21;;;;;;;11.43;8.33;;;;;;;;;;5056051;28;20192;-65
2022/03/01 07:47:46;;;;;;;11.63;8.50;;;;;;;;;;5054237;28;20178;-65
2022/03/01 07:50:13;;;;;;;12.13;8.57;;;;;;;;;;5055466;28;20183;-66
2022/03/01 07:52:39;;;;;;;12.73;8.03;;;;;;;;;;5055327;28;20293;-65
2022/03/01 07:55:05;;;;;;;16.20;8.47;;;;;;;;;;5055453;28;20210;-65
2022/03/01 07:57:31;;;;;;;13.77;8.60;;;;;;;;;;5078567;23;20221;-61
2022/03/01 07:59:57;;;;;;;14.50;8.60;;;;;;;;;;5074603;28;20231;-61
2022/03/01 08:02:24;;;;;;;12.23;8.23;;;;;;;;;;5075786;28;20178;-61
2022/03/01 08:04:49;;;;;;;14.17;8.93;;;;;;;;;;5077519;28;20182;-61
2022/03/01 08:07:15;;;;;;;13.93;8.60;;;;;;;;;;5076266;28;20549;-62
2022/03/01 08:09:42;;;;;;;13.33;8.63;;;;;;;;;;5076957;28;20554;-61
2022/03/01 08:12:08;;;;;;;13.67;8.80;;;;;;;;;;5077301;28;20178;-62
2022/03/01 08:14:35;;;;;;;12.97;8.57;;;;;;;;;;5075363;28;20174;-61
2022/03/01 08:17:02;;;;;;;13.17;8.80;;;;;;;;;;5075123;28;20240;-61
2022/03/01 08:19:28;;;;;;;14.40;8.70;;;;;;;;;;5075648;28;20262;-61
2022/03/01 08:21:54;;;;;;;13.17;8.83;;;;;;;;;;5073750;28;20300;-61
2022/03/01 08:24:20;;;;;;;15.73;8.83;;;;;;;;;;5073791;28;20174;-61
2022/03/01 08:26:46;;;;;;;14.33;8.67;;;;;;;;;;5073761;28;20225;-61
2022/03/01 08:29:12;;;;;;;14.00;8.33;;;;;;;;;;5075218;28;20625;-61
2022/03/01 08:31:41;;;;;;;14.33;8.93;;;;;;;;;;5075219;28;20177;-61
2022/03/01 08:34:07;;;;;;;14.57;8.80;;;;;;;;;;5075104;28;20272;-61
2022/03/01 08:36:33;;;;;;;12.93;8.90;;;;;;;;;;5075103;28;20193;-60
2022/03/01 08:38:59;;;;;;;13.93;8.80;;;;;;;;;;5075284;28;20256;-61
2022/03/01 08:41:25;;;;;;;16.13;9.00;;;;;;;;;;5074798;28;20342;-61
2022/03/01 08:43:51;;;;;;;10.73;7.87;;;;;;;;;;5075185;28;20225;-61
2022/03/01 08:46:17;;;;;;;12.80;8.67;;;;;;;;;;5074693;28;20178;-61
2022/03/01 08:48:44;;;;;;;16.77;9.57;;;;;;;;;;5074569;28;20231;-61
2022/03/01 08:51:10;;;;;;;13.87;8.90;;;;;;;;;;5074915;28;20181;-61
2022/03/01 08:53:36;;;;;;;13.50;9.13;;;;;;;;;;5074459;28;20174;-61
2022/03/01 08:56:02;;;;;;;16.97;9.03;;;;;;;;;;5074600;28;20182;-61
2022/03/01 08:58:28;;;;;;;16.70;8.80;;;;;;;;;;5073071;28;20220;-61
2022/03/01 09:00:54;;;;;;;13.07;9.00;;;;;;;;;;5074779;28;20569;-61
2022/03/01 09:03:23;;;;;;;19.47;11.33;;;;;;;;;;5075182;28;20573;-62
2022/03/01 09:05:49;;;;;;;20.30;11.93;;;;;;;;;;5074369;28;20189;-61
2022/03/01 09:08:15;;;;;;;14.60;10.10;;;;;;;;;;5074443;28;20193;-61
2022/03/01 09:10:41;;;;;;;15.50;10.53;;;;;;;;;;5074231;28;20174;-61
2022/03/01 09:13:08;;;;;;;14.57;9.67;;;;;;;;;;5074146;28;20668;-61
2022/03/01 09:15:34;;;;;;;15.07;9.73;;;;;;;;;;5073710;28;20209;-62
2022/03/01 09:18:00;;;;;;;14.10;9.17;;;;;;;;;;5074392;28;20620;-61
2022/03/01 09:20:27;;;;;;;13.93;8.93;;;;;;;;;;5074639;28;20194;-61
2022/03/01 09:22:53;;;;;;;12.53;9.20;;;;;;;;;;5074934;28;20221;-61
2022/03/01 09:25:19;;;;;;;12.73;9.53;;;;;;;;;;5084191;28;20174;-62
2022/03/01 09:27:46;;;;;;;15.57;9.53;;;;;;;;;;5089365;28;20189;-61
2022/03/01 09:30:12;;;;;;;19.33;10.60;;;;;;;;;;5088602;28;20564;-61
2022/03/01 09:32:38;;;;;;;16.60;9.80;;;;;;;;;;5083922;28;20174;-61
2022/03/01 09:35:04;;;;;;;18.50;11.00;;;;;;;;;;5074046;28;20181;-61
2022/03/01 09:37:32;;;;;;;23.80;14.10;;;;;;;;;;5073916;28;20190;-61
2022/03/01 09:39:59;;;;;;;17.73;12.63;;;;;;;;;;5074291;28;20173;-61
2022/03/01 09:42:25;;;;;;;18.43;11.97;;;;;;;;;;5074407;28;20229;-61
2022/03/01 09:44:52;;;;;;;11.97;9.03;;;;;;;;;;5074453;28;20181;-61
2022/03/01 09:47:18;;;;;;;13.60;8.70;;;;;;;;;;5074533;28;20198;-61
2022/03/01 09:49:44;;;;;;;13.57;9.00;;;;;;;;;;5074156;28;20169;-61
2022/03/01 09:52:10;;;;;;;14.87;8.90;;;;;;;;;;5072603;28;20189;-62
2022/03/01 09:54:36;;;;;;;14.83;8.80;;;;;;;;;;5073952;28;20253;-62
2022/03/01 09:57:02;;;;;;;15.03;9.63;;;;;;;;;;5072558;28;20256;-62
2022/03/01 09:59:28;;;;;;;13.53;9.03;;;;;;;;;;5080473;28;20162;-62
2022/03/01 10:01:54;;;;;;;13.73;9.37;;;;;;;;;;5085741;28;20217;-62
2022/03/01 10:04:21;;;;;;;12.00;9.27;;;;;;;;;;5088498;28;20239;-62
2022/03/01 10:06:47;;;;;;;15.10;9.07;;;;;;;;;;5089248;28;20193;-62
2022/03/01 10:09:15;;;;;;;13.93;9.33;;;;;;;;;;5088235;28;20268;-62
2022/03/01 10:11:41;;;;;;;13.33;8.67;;;;;;;;;;5075971;28;20177;-61
2022/03/01 10:14:07;;;;;;;13.80;8.87;;;;;;;;;;5073783;28;20665;-62
2022/03/01 10:16:45;;;;;;;16.67;9.60;;;;;;;;;;5073213;28;20205;-61
2022/03/01 10:19:21;;;;;;;11.60;8.80;;;;;;;;;;5073198;28;20181;-62
2022/03/01 10:22:01;;;;;;;14.03;9.17;;;;;;;;;;5071842;28;20205;-62
2022/03/01 10:24:27;;;;;;;14.97;9.07;;;;;;;;;;5073297;28;20641;-62
2022/03/01 10:26:57;;;;;;;14.53;9.60;;;;;;;;;;5076379;28;20193;-62
2022/03/01 10:29:26;;;;;;;14.73;9.17;;;;;;;;;;5077623;28;20185;-62
2022/03/01 10:31:52;;;;;;;16.80;10.63;;;;;;;;;;5076056;28;20217;-62
2022/03/01 10:34:19;;;;;;;15.00;10.53;;;;;;;;;;5077231;28;20173;-62
2022/03/01 10:36:47;;;;;;;18.97;10.43;;;;;;;;;;5075969;28;20209;-62
2022/03/01 10:39:19;;;;;;;21.53;10.63;;;;;;;;;;5077334;28;20257;-62
2022/03/01 10:41:45;;;;;;;24.50;11.53;;;;;;;;;;5077537;28;20267;-63
2022/03/01 10:44:16;;;;;;;17.33;11.10;;;;;;;;;;5081746;28;20174;-62
2022/03/01 10:46:48;;;;;;;23.30;12.33;;;;;;;;;;5079905;28;20750;-62
2022/03/01 10:49:16;;;;;;;19.20;12.13;;;;;;;;;;5086325;28;20178;-63
2022/03/01 10:52:03;;;;;;;18.43;11.53;;;;;;;;;;5079939;28;20190;-62
2022/03/01 10:54:32;;;;;;;21.33;11.20;;;;;;;;;;5077330;28;20638;-62
2022/03/01 10:56:59;;;;;;;21.00;10.93;;;;;;;;;;5082496;28;20217;-62
2022/03/01 10:59:29;;;;;;;19.40;11.70;;;;;;;;;;5096922;28;20637;-62
2022/03/01 11:01:56;;;;;;;20.00;11.63;;;;;;;;;;5097079;28;20201;-62
2022/03/01 11:04:24;;;;;;;15.47;9.93;;;;;;;;;;5097059;28;20173;-62
2022/03/01 11:06:50;;;;;;;16.50;10.77;;;;;;;;;;5096803;28;20193;-62
2022/03/01 11:09:17;;;;;;;14.70;9.40;;;;;;;;;;5096773;28;20278;-61
2022/03/01 11:11:44;;;;;;;19.53;9.33;;;;;;;;;;5096828;28;20185;-62
2022/03/01 11:14:11;;;;;;;16.47;9.80;;;;;;;;;;5097009;28;20196;-62
2022/03/01 11:16:43;;;;;;;13.00;8.30;;;;;;;;;;5096667;28;20279;-63
2022/03/01 11:19:27;;;;;;;14.87;8.63;;;;;;;;;;5096768;28;20197;-63
2022/03/01 11:21:54;;;;;;;14.57;9.77;;;;;;;;;;5078514;28;20201;-63
2022/03/01 11:24:21;;;;;;;12.97;8.97;;;;;;;;;;5096445;28;20201;-62
2022/03/01 11:26:48;;;;;;;13.60;8.90;;;;;;;;;;5096623;28;20200;-62
2022/03/01 11:29:14;;;;;;;13.80;9.10;;;;;;;;;;5096726;28;20173;-62
2022/03/01 11:31:41;;;;;;;14.63;9.00;;;;;;;;;;5096688;28;20641;-63
2022/03/01 11:34:17;;;;;;;15.73;9.10;;;;;;;;;;5096474;28;20645;-64
2022/03/01 11:36:50;;;;;;;16.43;11.43;;;;;;;;;;5096730;28;20197;-62
2022/03/01 11:39:17;;;;;;;16.50;10.27;;;;;;;;;;5095508;28;20181;-63
2022/03/01 11:41:44;;;;;;;13.40;9.60;;;;;;;;;;5096110;28;20279;-63
2022/03/01 11:44:11;;;;;;;15.17;9.47;;;;;;;;;;5078232;28;20629;-63
2022/03/01 11:46:41;;;;;;;17.27;10.30;;;;;;;;;;5077655;28;20212;-63
2022/03/01 11:49:07;;;;;;;17.47;11.13;;;;;;;;;;5095939;28;20204;-63
2022/03/01 11:51:36;;;;;;;17.40;10.17;;;;;;;;;;5077817;28;20208;-63
2022/03/01 11:54:06;;;;;;;21.30;11.93;;;;;;;;;;5096043;28;20204;-63
2022/03/01 11:56:33;;;;;;;22.57;12.80;;;;;;;;;;5077481;28;20201;-63
2022/03/01 11:59:04;;;;;;;26.40;13.37;;;;;;;;;;5096451;28;20165;-63
2022/03/01 12:01:32;;;;;;;21.73;12.17;;;;;;;;;;5095905;28;20191;-63
2022/03/01 12:04:00;;;;;;;22.07;11.40;;;;;;;;;;5096677;28;20177;-63
2022/03/01 12:06:28;;;;;;;18.53;9.73;;;;;;;;;;5098050;28;20250;-63
2022/03/01 12:08:57;;;;;;;16.87;9.27;;;;;;;;;;5096874;28;20184;-62
2022/03/01 12:11:37;;;;;;;17.10;9.43;;;;;;;;;;5095681;28;20177;-62
2022/03/01 12:14:04;;;;;;;18.47;9.57;;;;;;;;;;5096099;28;20184;-63
2022/03/01 12:16:31;;;;;;;18.07;10.63;;;;;;;;;;5096195;28;20207;-62
2022/03/01 12:19:11;;;;;;;13.40;8.83;;;;;;;;;;5077232;28;20245;-62
2022/03/01 12:21:37;;;;;;;18.93;10.10;;;;;;;;;;5095372;28;20281;-62
2022/03/01 12:24:04;;;;;;;21.87;10.87;;;;;;;;;;5095252;28;20328;-62
2022/03/01 12:26:30;;;;;;;14.00;9.00;;;;;;;;;;5095443;28;20200;-61
2022/03/01 12:28:58;;;;;;;13.20;9.27;;;;;;;;;;5095976;28;20218;-61
2022/03/01 12:31:26;;;;;;;18.93;9.77;;;;;;;;;;5095434;28;20200;-61
2022/03/01 12:33:53;;;;;;;15.43;8.40;;;;;;;;;;5076912;28;20188;-62
2022/03/01 12:36:24;;;;;;;15.70;9.43;;;;;;;;;;5095142;28;20631;-61
2022/03/01 12:38:57;;;;;;;22.43;11.33;;;;;;;;;;5095282;28;20664;-62
2022/03/01 12:41:23;;;;;;;15.23;10.00;;;;;;;;;;5095187;28;20209;-61
2022/03/01 12:43:53;;;;;;;14.97;8.93;;;;;;;;;;5095031;28;20605;-61
2022/03/01 12:46:20;;;;;;;14.83;9.20;;;;;;;;;;5094944;28;20264;-61
2022/03/01 12:48:47;;;;;;;14.10;8.77;;;;;;;;;;5094605;28;20165;-61
2022/03/01 12:51:14;;;;;;;12.67;8.50;;;;;;;;;;5094819;28;20201;-61
2022/03/01 12:53:50;;;;;;;11.93;8.07;;;;;;;;;;5094871;28;20177;-60
2022/03/01 12:56:20;;;;;;;11.77;8.77;;;;;;;;;;5076290;28;20187;-61
2022/03/01 12:58:46;;;;;;;14.03;9.73;;;;;;;;;;5094421;28;20184;-61
2022/03/01 13:01:12;;;;;;;15.07;10.13;;;;;;;;;;5094670;28;20672;-61
2022/03/01 13:03:38;;;;;;;15.33;8.90;;;;;;;;;;5094431;28;20169;-62
2022/03/01 13:06:08;;;;;;;16.50;9.87;;;;;;;;;;5094736;28;20181;-61
2022/03/01 13:08:35;;;;;;;12.10;8.87;;;;;;;;;;5094137;28;20193;-63
2022/03/01 13:11:01;;;;;;;11.77;8.33;;;;;;;;;;5094259;28;20195;-62
2022/03/01 13:13:27;;;;;;;11.93;9.10;;;;;;;;;;5094361;28;20664;-62
2022/03/01 13:15:53;;;;;;;12.37;8.50;;;;;;;;;;5094579;28;20550;-62
2022/03/01 13:18:26;;;;;;;14.87;9.23;;;;;;;;;;5094542;28;20228;-62
2022/03/01 13:20:52;;;;;;;13.67;9.37;;;;;;;;;;5094106;28;20197;-62
2022/03/01 13:23:20;;;;;;;16.27;8.97;;;;;;;;;;5094476;28;20637;-63
2022/03/01 13:25:46;;;;;;;14.93;9.77;;;;;;;;;;5095493;28;20173;-61
2022/03/01 13:28:12;;;;;;;10.23;7.73;;;;;;;;;;5094342;28;20715;-62
2022/03/01 13:30:40;;;;;;;15.90;10.18;;;;;;;;;;5075596;28;20374;-62
2022/03/01 13:33:08;;;;;;;10.17;7.90;;;;;;;;;;5075958;28;20173;-62
2022/03/01 13:35:35;;;;;;;13.60;8.87;;;;;;;;;;5094165;28;20308;-62
2022/03/01 13:38:05;;;;;;;12.43;8.27;;;;;;;;;;5093836;28;20207;-62
2022/03/01 13:40:31;;;;;;;11.53;7.97;;;;;;;;;;5093886;28;20211;-63
2022/03/01 13:43:14;;;;;;;10.93;7.73;;;;;;;;;;5075773;28;20180;-61
2022/03/01 13:45:42;;;;;;;12.23;8.20;;;;;;;;;;5094437;28;20168;-61
2022/03/01 13:48:16;;;;;;;14.33;8.93;;;;;;;;;;5075963;28;20241;-62
2022/03/01 13:50:43;;;;;;;16.30;9.13;;;;;;;;;;5075675;28;20267;-62
2022/03/01 13:53:19;;;;;;;13.83;9.17;;;;;;;;;;5093769;28;20184;-62
2022/03/01 13:55:46;;;;;;;11.50;7.93;;;;;;;;;;5093905;28;20213;-62
2022/03/01 13:58:16;;;;;;;12.30;8.00;;;;;;;;;;5093624;28;20220;-62
2022/03/01 14:00:46;;;;;;;14.47;8.10;;;;;;;;;;5093779;28;20201;-62
2022/03/01 14:03:13;;;;;;;11.50;7.87;;;;;;;;;;5075606;28;20195;-62
2022/03/01 14:05:44;;;;;;;9.57;7.10;;;;;;;;;;5094180;28;20173;-60
2022/03/01 14:08:11;;;;;;;12.13;7.10;;;;;;;;;;5094078;28;20189;-62
2022/03/01 14:10:38;;;;;;;10.57;7.80;;;;;;;;;;5093527;28;20654;-62
2022/03/01 14:13:08;;;;;;;12.77;7.67;;;;;;;;;;5094983;28;20177;-61
2022/03/01 14:15:43;;;;;;;11.63;7.50;;;;;;;;;;5094348;28;20185;-60
2022/03/01 14:18:09;;;;;;;12.10;9.30;;;;;;;;;;5092898;28;20468;-60
2022/03/01 14:20:35;;;;;;;;;;;;;;;;;;5094916;28;20480;-61
2022/03/01 14:23:01;;;;;;;;;;;;;;;;;;5095154;28;19904;-61
2022/03/01 14:25:27;;;;;;;;;;;;;;;;;;5095040;28;19904;-61
2022/03/01 14:27:54;;;;;;;13.30;8.80;;;;;;;;;;5076571;28;20221;-61